Terminal Aerodrome Forecast
Issued by NWS

Home | Current Version | Previous Version | Text Only | Print | Product List | Glossary On
Versions: 1 2 3 4 5 6 7 8 9 10 11 12
002
FTPA31 PHFO 221100
TAFJRF
TAF
PHJR 221136Z 2212/2312 VRB03KT P6SM SCT025
     FM222000 21009KT P6SM FEW030 SCT050
     FM230000 23009KT P6SM VCSH SCT030 BKN050
     FM230500 VRB04KT P6SM VCSH SCT030 BKN050=

USA.gov is the U.S. government's official web portal to all federal, state and local government web resources and services.